sensor_id;sensor_type;location;lat;lon;timestamp;pressure;altitude;pressure_sealevel;temperature;humidity
38163;BME280;23977;53.078;18.248;2023-05-29T00:01:14;101607.75;;;8.69;90.55
38163;BME280;23977;53.078;18.248;2023-05-29T00:03:44;101612.28;;;8.58;91.04
38163;BME280;23977;53.078;18.248;2023-05-29T00:06:11;101617.09;;;8.52;91.36
38163;BME280;23977;53.078;18.248;2023-05-29T00:08:37;101614.47;;;8.30;92.03
38163;BME280;23977;53.078;18.248;2023-05-29T00:11:07;101612.19;;;8.25;92.78
38163;BME280;23977;53.078;18.248;2023-05-29T00:13:34;101610.06;;;8.08;93.13
38163;BME280;23977;53.078;18.248;2023-05-29T00:15:59;101608.72;;;8.13;93.71
38163;BME280;23977;53.078;18.248;2023-05-29T00:18:30;101610.41;;;8.14;92.59
38163;BME280;23977;53.078;18.248;2023-05-29T00:20:55;101609.78;;;8.22;92.33
38163;BME280;23977;53.078;18.248;2023-05-29T00:23:21;101615.16;;;7.88;93.56
38163;BME280;23977;53.078;18.248;2023-05-29T00:25:47;101609.50;;;7.82;94.27
38163;BME280;23977;53.078;18.248;2023-05-29T00:28:13;101615.72;;;8.14;93.14
38163;BME280;23977;53.078;18.248;2023-05-29T00:30:39;101617.16;;;8.19;92.06
38163;BME280;23977;53.078;18.248;2023-05-29T00:33:05;101621.38;;;8.10;92.55
38163;BME280;23977;53.078;18.248;2023-05-29T00:35:31;101617.91;;;7.64;95.03
38163;BME280;23977;53.078;18.248;2023-05-29T00:37:57;101621.72;;;7.37;96.85
38163;BME280;23977;53.078;18.248;2023-05-29T00:40:23;101621.34;;;7.31;98.13
38163;BME280;23977;53.078;18.248;2023-05-29T00:42:48;101619.81;;;7.39;98.08
38163;BME280;23977;53.078;18.248;2023-05-29T00:45:14;101627.75;;;7.28;98.44
38163;BME280;23977;53.078;18.248;2023-05-29T00:47:40;101628.44;;;7.19;99.29
38163;BME280;23977;53.078;18.248;2023-05-29T00:50:06;101623.69;;;7.00;100.00
38163;BME280;23977;53.078;18.248;2023-05-29T00:52:33;101627.50;;;6.96;100.00
38163;BME280;23977;53.078;18.248;2023-05-29T00:54:59;101622.84;;;6.99;100.00
38163;BME280;23977;53.078;18.248;2023-05-29T00:57:27;101629.38;;;7.07;100.00
38163;BME280;23977;53.078;18.248;2023-05-29T00:59:53;101619.22;;;7.00;100.00
38163;BME280;23977;53.078;18.248;2023-05-29T01:02:19;101625.78;;;7.19;99.89
38163;BME280;23977;53.078;18.248;2023-05-29T01:04:45;101622.06;;;7.21;100.00
38163;BME280;23977;53.078;18.248;2023-05-29T01:07:11;101634.22;;;7.13;100.00
38163;BME280;23977;53.078;18.248;2023-05-29T01:09:37;101627.34;;;6.86;100.00
38163;BME280;23977;53.078;18.248;2023-05-29T01:15:04;101629.28;;;6.84;100.00
38163;BME280;23977;53.078;18.248;2023-05-29T01:17:37;101626.19;;;6.66;100.00
38163;BME280;23977;53.078;18.248;2023-05-29T01:20:20;101627.84;;;6.80;100.00
38163;BME280;23977;53.078;18.248;2023-05-29T01:23:14;101628.28;;;6.74;100.00
38163;BME280;23977;53.078;18.248;2023-05-29T01:28:22;101630.97;;;6.85;100.00
38163;BME280;23977;53.078;18.248;2023-05-29T01:30:50;101629.06;;;6.87;100.00
38163;BME280;23977;53.078;18.248;2023-05-29T01:33:17;101630.97;;;6.85;100.00
38163;BME280;23977;53.078;18.248;2023-05-29T01:35:42;101640.41;;;7.00;100.00
38163;BME280;23977;53.078;18.248;2023-05-29T01:38:08;101630.16;;;6.84;100.00
38163;BME280;23977;53.078;18.248;2023-05-29T01:40:33;101632.84;;;6.72;100.00
38163;BME280;23977;53.078;18.248;2023-05-29T01:42:59;101630.81;;;6.75;100.00
38163;BME280;23977;53.078;18.248;2023-05-29T01:45:25;101626.56;;;6.73;100.00
38163;BME280;23977;53.078;18.248;2023-05-29T01:47:51;101634.47;;;6.61;100.00
38163;BME280;23977;53.078;18.248;2023-05-29T01:50:17;101625.47;;;6.40;100.00
38163;BME280;23977;53.078;18.248;2023-05-29T01:52:43;101628.25;;;6.25;100.00
38163;BME280;23977;53.078;18.248;2023-05-29T01:55:09;101627.75;;;6.20;100.00
38163;BME280;23977;53.078;18.248;2023-05-29T01:57:35;101629.16;;;6.13;100.00
38163;BME280;23977;53.078;18.248;2023-05-29T02:00:02;101620.72;;;6.08;100.00
38163;BME280;23977;53.078;18.248;2023-05-29T02:02:30;101626.94;;;6.07;100.00
38163;BME280;23977;53.078;18.248;2023-05-29T02:04:55;101619.66;;;5.98;100.00
38163;BME280;23977;53.078;18.248;2023-05-29T02:07:21;101617.78;;;6.00;100.00
38163;BME280;23977;53.078;18.248;2023-05-29T02:09:46;101630.88;;;6.01;100.00
38163;BME280;23977;53.078;18.248;2023-05-29T02:12:12;101616.25;;;5.96;100.00
38163;BME280;23977;53.078;18.248;2023-05-29T02:14:38;101625.16;;;5.95;100.00
38163;BME280;23977;53.078;18.248;2023-05-29T02:17:05;101622.28;;;5.98;100.00
38163;BME280;23977;53.078;18.248;2023-05-29T02:19:31;101627.03;;;5.92;100.00
38163;BME280;23977;53.078;18.248;2023-05-29T02:21:56;101631.28;;;5.95;100.00
38163;BME280;23977;53.078;18.248;2023-05-29T02:24:22;101632.97;;;5.96;100.00
38163;BME280;23977;53.078;18.248;2023-05-29T02:26:48;101627.03;;;6.18;100.00
38163;BME280;23977;53.078;18.248;2023-05-29T02:29:15;101626.16;;;6.18;100.00
38163;BME280;23977;53.078;18.248;2023-05-29T02:31:41;101623.47;;;6.30;100.00
38163;BME280;23977;53.078;18.248;2023-05-29T02:34:06;101625.31;;;6.17;100.00
38163;BME280;23977;53.078;18.248;2023-05-29T02:36:32;101618.81;;;6.10;100.00
38163;BME280;23977;53.078;18.248;2023-05-29T02:38:59;101627.78;;;6.07;100.00
38163;BME280;23977;53.078;18.248;2023-05-29T02:41:25;101625.31;;;6.17;100.00
38163;BME280;23977;53.078;18.248;2023-05-29T02:43:51;101627.38;;;6.38;100.00
38163;BME280;23977;53.078;18.248;2023-05-29T02:46:18;101620.19;;;6.40;100.00
38163;BME280;23977;53.078;18.248;2023-05-29T02:48:44;101624.47;;;6.29;100.00
38163;BME280;23977;53.078;18.248;2023-05-29T02:51:10;101623.47;;;6.30;100.00
38163;BME280;23977;53.078;18.248;2023-05-29T02:53:36;101629.06;;;6.39;100.00
38163;BME280;23977;53.078;18.248;2023-05-29T02:56:01;101627.50;;;6.60;100.00
38163;BME280;23977;53.078;18.248;2023-05-29T02:58:27;101629.81;;;7.00;100.00
38163;BME280;23977;53.078;18.248;2023-05-29T03:00:53;101624.91;;;7.76;100.00
38163;BME280;23977;53.078;18.248;2023-05-29T03:03:18;101617.38;;;8.15;100.00
38163;BME280;23977;53.078;18.248;2023-05-29T03:05:44;101630.84;;;8.58;100.00
38163;BME280;23977;53.078;18.248;2023-05-29T03:08:11;101628.91;;;9.13;97.89
38163;BME280;23977;53.078;18.248;2023-05-29T03:10:38;101637.09;;;9.52;92.22
38163;BME280;23977;53.078;18.248;2023-05-29T03:13:03;101636.88;;;9.86;90.58
38163;BME280;23977;53.078;18.248;2023-05-29T03:15:29;101630.31;;;10.41;87.72
38163;BME280;23977;53.078;18.248;2023-05-29T03:17:55;101629.78;;;11.05;82.01
38163;BME280;23977;53.078;18.248;2023-05-29T03:20:21;101629.84;;;11.53;78.59
38163;BME280;23977;53.078;18.248;2023-05-29T03:22:47;101630.22;;;12.05;75.82
38163;BME280;23977;53.078;18.248;2023-05-29T03:25:16;101633.00;;;12.59;74.10
38163;BME280;23977;53.078;18.248;2023-05-29T03:27:41;101632.13;;;13.12;69.53
38163;BME280;23977;53.078;18.248;2023-05-29T03:30:07;101645.75;;;13.80;66.58
38163;BME280;23977;53.078;18.248;2023-05-29T03:32:32;101631.50;;;14.14;64.49
38163;BME280;23977;53.078;18.248;2023-05-29T03:34:58;101639.06;;;14.69;62.09
38163;BME280;23977;53.078;18.248;2023-05-29T03:37:23;101633.03;;;15.25;58.95
38163;BME280;23977;53.078;18.248;2023-05-29T03:39:49;101631.25;;;15.81;58.03
38163;BME280;23977;53.078;18.248;2023-05-29T03:42:15;101635.56;;;16.53;54.85
38163;BME280;23977;53.078;18.248;2023-05-29T03:44:41;101643.44;;;16.86;54.32
38163;BME280;23977;53.078;18.248;2023-05-29T03:47:07;101640.25;;;17.44;52.45
38163;BME280;23977;53.078;18.248;2023-05-29T03:49:34;101636.91;;;18.16;50.08
38163;BME280;23977;53.078;18.248;2023-05-29T03:51:59;101631.88;;;18.71;48.52
38163;BME280;23977;53.078;18.248;2023-05-29T03:54:25;101634.03;;;18.97;47.46
38163;BME280;23977;53.078;18.248;2023-05-29T03:56:51;101634.22;;;19.52;45.84
38163;BME280;23977;53.078;18.248;2023-05-29T03:59:16;101634.53;;;19.71;45.68
38163;BME280;23977;53.078;18.248;2023-05-29T04:01:42;101631.69;;;20.27;44.97
38163;BME280;23977;53.078;18.248;2023-05-29T04:04:08;101632.06;;;20.99;42.85
38163;BME280;23977;53.078;18.248;2023-05-29T04:06:33;101635.81;;;21.25;43.14
38163;BME280;23977;53.078;18.248;2023-05-29T04:08:59;101634.38;;;22.01;41.29
38163;BME280;23977;53.078;18.248;2023-05-29T04:11:25;101635.78;;;22.56;40.42
38163;BME280;23977;53.078;18.248;2023-05-29T04:13:51;101638.81;;;22.98;39.34
38163;BME280;23977;53.078;18.248;2023-05-29T04:16:17;101626.28;;;23.47;38.35
38163;BME280;23977;53.078;18.248;2023-05-29T04:18:43;101636.78;;;23.80;38.20
38163;BME280;23977;53.078;18.248;2023-05-29T04:21:08;101633.44;;;24.46;36.65
38163;BME280;23977;53.078;18.248;2023-05-29T04:23:35;101639.00;;;24.93;35.54
38163;BME280;23977;53.078;18.248;2023-05-29T04:26:01;101634.56;;;25.34;35.13
38163;BME280;23977;53.078;18.248;2023-05-29T04:28:27;101640.50;;;25.55;35.52
38163;BME280;23977;53.078;18.248;2023-05-29T04:30:52;101637.03;;;25.24;35.63
38163;BME280;23977;53.078;18.248;2023-05-29T04:33:20;101631.44;;;25.66;35.11
38163;BME280;23977;53.078;18.248;2023-05-29T04:35:46;101628.53;;;27.00;32.56
38163;BME280;23977;53.078;18.248;2023-05-29T04:38:14;101627.59;;;26.02;33.62
38163;BME280;23977;53.078;18.248;2023-05-29T04:40:39;101631.56;;;26.24;34.65
38163;BME280;23977;53.078;18.248;2023-05-29T04:43:05;101629.16;;;26.73;33.65
38163;BME280;23977;53.078;18.248;2023-05-29T04:45:31;101632.94;;;26.55;33.24
38163;BME280;23977;53.078;18.248;2023-05-29T04:47:58;101625.84;;;26.71;33.29
38163;BME280;23977;53.078;18.248;2023-05-29T04:50:30;101620.56;;;27.54;32.21
38163;BME280;23977;53.078;18.248;2023-05-29T04:53:00;101620.75;;;28.41;30.60
38163;BME280;23977;53.078;18.248;2023-05-29T04:55:26;101627.06;;;27.92;30.86
38163;BME280;23977;53.078;18.248;2023-05-29T04:57:54;101620.91;;;27.80;30.99
38163;BME280;23977;53.078;18.248;2023-05-29T05:00:22;101616.31;;;28.08;30.13
38163;BME280;23977;53.078;18.248;2023-05-29T05:02:49;101616.97;;;28.74;29.54
38163;BME280;23977;53.078;18.248;2023-05-29T05:05:15;101608.59;;;28.86;29.43
38163;BME280;23977;53.078;18.248;2023-05-29T05:07:42;101609.00;;;29.05;28.67
38163;BME280;23977;53.078;18.248;2023-05-29T05:10:08;101615.41;;;29.74;27.94
38163;BME280;23977;53.078;18.248;2023-05-29T05:12:35;101622.59;;;29.85;27.90
38163;BME280;23977;53.078;18.248;2023-05-29T05:15:07;101612.25;;;30.08;27.25
38163;BME280;23977;53.078;18.248;2023-05-29T05:17:51;101611.78;;;30.47;27.43
38163;BME280;23977;53.078;18.248;2023-05-29T05:20:17;101613.44;;;30.38;27.08
38163;BME280;23977;53.078;18.248;2023-05-29T05:22:45;101612.88;;;30.97;26.59
38163;BME280;23977;53.078;18.248;2023-05-29T05:25:15;101613.88;;;31.38;26.04
38163;BME280;23977;53.078;18.248;2023-05-29T05:27:42;101621.00;;;31.54;26.08
38163;BME280;23977;53.078;18.248;2023-05-29T05:30:10;101619.72;;;31.96;25.14
38163;BME280;23977;53.078;18.248;2023-05-29T05:32:36;101620.47;;;31.57;25.12
38163;BME280;23977;53.078;18.248;2023-05-29T05:35:06;101622.13;;;32.13;24.86
38163;BME280;23977;53.078;18.248;2023-05-29T05:37:33;101618.91;;;33.04;24.24
38163;BME280;23977;53.078;18.248;2023-05-29T05:40:05;101628.31;;;33.03;22.98
38163;BME280;23977;53.078;18.248;2023-05-29T05:42:33;101623.44;;;32.95;22.91
38163;BME280;23977;53.078;18.248;2023-05-29T05:44:59;101626.91;;;32.76;23.23
38163;BME280;23977;53.078;18.248;2023-05-29T05:47:26;101633.94;;;32.93;23.36
38163;BME280;23977;53.078;18.248;2023-05-29T05:49:54;101630.66;;;33.44;22.45
38163;BME280;23977;53.078;18.248;2023-05-29T05:59:21;101636.81;;;34.03;22.01
38163;BME280;23977;53.078;18.248;2023-05-29T06:02:32;101632.81;;;34.66;20.78
38163;BME280;23977;53.078;18.248;2023-05-29T06:04:59;101641.28;;;34.75;20.70
38163;BME280;23977;53.078;18.248;2023-05-29T06:07:28;101644.47;;;35.43;20.69
38163;BME280;23977;53.078;18.248;2023-05-29T06:09:56;101645.06;;;35.40;20.61
38163;BME280;23977;53.078;18.248;2023-05-29T06:12:26;101645.09;;;35.26;20.89
38163;BME280;23977;53.078;18.248;2023-05-29T06:15:06;101641.06;;;35.88;19.96
38163;BME280;23977;53.078;18.248;2023-05-29T06:17:32;101635.22;;;36.48;19.13
38163;BME280;23977;53.078;18.248;2023-05-29T06:19:58;101635.34;;;36.07;18.92
38163;BME280;23977;53.078;18.248;2023-05-29T06:22:24;101635.25;;;36.26;18.62
38163;BME280;23977;53.078;18.248;2023-05-29T06:24:49;101638.13;;;36.43;18.35
38163;BME280;23977;53.078;18.248;2023-05-29T06:27:15;101633.72;;;36.42;18.22
38163;BME280;23977;53.078;18.248;2023-05-29T06:29:40;101627.91;;;36.75;18.05
38163;BME280;23977;53.078;18.248;2023-05-29T06:32:06;101620.91;;;37.09;17.57
38163;BME280;23977;53.078;18.248;2023-05-29T06:34:31;101619.88;;;38.03;16.45
38163;BME280;23977;53.078;18.248;2023-05-29T06:36:57;101619.53;;;38.48;16.09
38163;BME280;23977;53.078;18.248;2023-05-29T06:39:22;101608.75;;;38.20;16.67
38163;BME280;23977;53.078;18.248;2023-05-29T06:41:49;101619.75;;;38.90;16.18
38163;BME280;23977;53.078;18.248;2023-05-29T06:44:14;101623.09;;;38.75;15.23
38163;BME280;23977;53.078;18.248;2023-05-29T06:46:40;101620.75;;;38.94;15.59
38163;BME280;23977;53.078;18.248;2023-05-29T06:49:05;101623.63;;;37.89;16.20
38163;BME280;23977;53.078;18.248;2023-05-29T06:51:32;101625.09;;;38.39;15.77
38163;BME280;23977;53.078;18.248;2023-05-29T06:53:58;101624.97;;;39.39;15.21
38163;BME280;23977;53.078;18.248;2023-05-29T06:56:23;101625.38;;;38.55;16.18
38163;BME280;23977;53.078;18.248;2023-05-29T06:58:49;101624.63;;;39.70;15.42
38163;BME280;23977;53.078;18.248;2023-05-29T07:01:15;101628.06;;;39.97;14.73
38163;BME280;23977;53.078;18.248;2023-05-29T07:03:42;101621.94;;;40.58;14.87
38163;BME280;23977;53.078;18.248;2023-05-29T07:06:07;101622.06;;;41.97;13.80
38163;BME280;23977;53.078;18.248;2023-05-29T07:08:33;101620.75;;;41.05;14.18
38163;BME280;23977;53.078;18.248;2023-05-29T07:10:59;101612.72;;;41.53;14.32
38163;BME280;23977;53.078;18.248;2023-05-29T07:13:24;101615.88;;;41.27;14.61
38163;BME280;23977;53.078;18.248;2023-05-29T07:15:50;101620.91;;;42.27;13.67
38163;BME280;23977;53.078;18.248;2023-05-29T07:18:16;101621.25;;;42.25;14.01
38163;BME280;23977;53.078;18.248;2023-05-29T07:20:41;101623.97;;;43.65;12.83
38163;BME280;23977;53.078;18.248;2023-05-29T07:23:07;101624.16;;;44.11;12.86
38163;BME280;23977;53.078;18.248;2023-05-29T07:25:32;101622.03;;;44.67;12.85
38163;BME280;23977;53.078;18.248;2023-05-29T07:27:58;101623.88;;;45.29;12.68
38163;BME280;23977;53.078;18.248;2023-05-29T07:30:24;101620.03;;;45.71;12.28
38163;BME280;23977;53.078;18.248;2023-05-29T07:32:49;101620.09;;;45.17;12.42
38163;BME280;23977;53.078;18.248;2023-05-29T07:35:15;101627.78;;;44.74;12.40
38163;BME280;23977;53.078;18.248;2023-05-29T07:37:40;101630.44;;;44.67;12.79
38163;BME280;23977;53.078;18.248;2023-05-29T07:40:06;101620.59;;;44.77;12.67
38163;BME280;23977;53.078;18.248;2023-05-29T07:42:35;101628.66;;;43.41;13.35
38163;BME280;23977;53.078;18.248;2023-05-29T07:45:01;101631.69;;;42.41;13.81
38163;BME280;23977;53.078;18.248;2023-05-29T07:47:26;101627.66;;;44.67;12.99
38163;BME280;23977;53.078;18.248;2023-05-29T07:49:52;101626.34;;;45.34;12.45
38163;BME280;23977;53.078;18.248;2023-05-29T07:52:18;101630.66;;;45.54;12.56
38163;BME280;23977;53.078;18.248;2023-05-29T07:54:43;101629.44;;;44.56;12.96
38163;BME280;23977;53.078;18.248;2023-05-29T07:57:09;101633.53;;;44.81;13.13
38163;BME280;23977;53.078;18.248;2023-05-29T07:59:35;101628.31;;;45.33;12.74
38163;BME280;23977;53.078;18.248;2023-05-29T08:02:01;101630.44;;;44.90;13.02
38163;BME280;23977;53.078;18.248;2023-05-29T08:04:28;101627.94;;;44.85;13.01
38163;BME280;23977;53.078;18.248;2023-05-29T08:06:54;101630.97;;;44.96;12.74
38163;BME280;23977;53.078;18.248;2023-05-29T08:09:19;101624.34;;;46.66;12.10
38163;BME280;23977;53.078;18.248;2023-05-29T08:11:45;101631.00;;;47.44;11.26
38163;BME280;23977;53.078;18.248;2023-05-29T08:14:12;101634.94;;;49.53;10.10
38163;BME280;23977;53.078;18.248;2023-05-29T08:16:37;101623.97;;;49.77;10.24
38163;BME280;23977;53.078;18.248;2023-05-29T08:19:03;101626.53;;;49.28;10.56
38163;BME280;23977;53.078;18.248;2023-05-29T08:21:32;101635.78;;;48.28;10.80
38163;BME280;23977;53.078;18.248;2023-05-29T08:23:58;101633.81;;;48.39;10.90
38163;BME280;23977;53.078;18.248;2023-05-29T08:26:24;101619.09;;;47.87;11.40
38163;BME280;23977;53.078;18.248;2023-05-29T08:28:50;101627.41;;;48.85;10.65
38163;BME280;23977;53.078;18.248;2023-05-29T08:31:16;101593.31;;;46.59;11.63
38163;BME280;23977;53.078;18.248;2023-05-29T08:33:42;101535.94;;;46.33;11.68
38163;BME280;23977;53.078;18.248;2023-05-29T08:36:07;101634.44;;;47.19;11.22
38163;BME280;23977;53.078;18.248;2023-05-29T08:38:35;101589.44;;;48.94;10.29
38163;BME280;23977;53.078;18.248;2023-05-29T08:41:02;101641.31;;;47.92;11.52
38163;BME280;23977;53.078;18.248;2023-05-29T08:43:30;101633.56;;;47.12;11.35
38163;BME280;23977;53.078;18.248;2023-05-29T08:46:00;101605.09;;;46.31;11.69
38163;BME280;23977;53.078;18.248;2023-05-29T08:48:27;101642.47;;;45.64;12.76
38163;BME280;23977;53.078;18.248;2023-05-29T08:50:55;101638.34;;;43.99;13.09
38163;BME280;23977;53.078;18.248;2023-05-29T08:53:32;101629.50;;;46.53;12.42
38163;BME280;23977;53.078;18.248;2023-05-29T08:56:32;101626.16;;;48.65;10.86
38163;BME280;23977;53.078;18.248;2023-05-29T08:59:23;101603.69;;;50.52;9.44
38163;BME280;23977;53.078;18.248;2023-05-29T09:01:50;101626.53;;;49.24;9.90
38163;BME280;23977;53.078;18.248;2023-05-29T09:04:16;101627.13;;;50.60;9.47
38163;BME280;23977;53.078;18.248;2023-05-29T09:06:42;101633.69;;;49.72;10.06
38163;BME280;23977;53.078;18.248;2023-05-29T09:09:08;101625.72;;;49.09;10.13
38163;BME280;23977;53.078;18.248;2023-05-29T09:11:35;101615.22;;;49.10;10.46
38163;BME280;23977;53.078;18.248;2023-05-29T09:14:00;101610.00;;;48.58;10.43
38163;BME280;23977;53.078;18.248;2023-05-29T09:16:27;101588.56;;;49.18;10.68
38163;BME280;23977;53.078;18.248;2023-05-29T09:19:04;101626.78;;;47.93;11.08
38163;BME280;23977;53.078;18.248;2023-05-29T09:21:31;101592.91;;;47.05;11.53
38163;BME280;23977;53.078;18.248;2023-05-29T09:24:05;101639.44;;;48.32;10.39
38163;BME280;23977;53.078;18.248;2023-05-29T09:26:31;101640.09;;;48.00;10.96
38163;BME280;23977;53.078;18.248;2023-05-29T09:28:58;101594.41;;;46.47;11.73
38163;BME280;23977;53.078;18.248;2023-05-29T09:31:23;101571.16;;;46.54;11.35
38163;BME280;23977;53.078;18.248;2023-05-29T09:33:50;101636.88;;;45.97;11.46
38163;BME280;23977;53.078;18.248;2023-05-29T09:36:20;101641.50;;;46.13;11.76
38163;BME280;23977;53.078;18.248;2023-05-29T09:38:48;101644.69;;;46.49;11.58
38163;BME280;23977;53.078;18.248;2023-05-29T09:41:20;101606.66;;;46.28;11.41
38163;BME280;23977;53.078;18.248;2023-05-29T09:43:46;101601.97;;;46.40;11.52
38163;BME280;23977;53.078;18.248;2023-05-29T09:46:15;101637.44;;;44.77;12.52
38163;BME280;23977;53.078;18.248;2023-05-29T09:48:43;101646.34;;;43.61;13.17
38163;BME280;23977;53.078;18.248;2023-05-29T09:51:21;101634.66;;;42.48;13.72
38163;BME280;23977;53.078;18.248;2023-05-29T09:53:48;101555.47;;;41.87;13.69
38163;BME280;23977;53.078;18.248;2023-05-29T09:56:16;101601.59;;;41.81;14.03
38163;BME280;23977;53.078;18.248;2023-05-29T09:58:43;101633.75;;;40.22;15.17
38163;BME280;23977;53.078;18.248;2023-05-29T10:01:12;101607.81;;;41.00;14.90
38163;BME280;23977;53.078;18.248;2023-05-29T10:03:38;101547.59;;;39.87;15.45
38163;BME280;23977;53.078;18.248;2023-05-29T10:06:05;101494.47;;;37.34;16.95
38163;BME280;23977;53.078;18.248;2023-05-29T10:08:35;101624.75;;;37.71;17.15
38163;BME280;23977;53.078;18.248;2023-05-29T10:11:03;101632.25;;;36.90;18.46
38163;BME280;23977;53.078;18.248;2023-05-29T10:13:38;101552.31;;;35.93;18.39
38163;BME280;23977;53.078;18.248;2023-05-29T10:16:08;101630.06;;;34.99;19.70
38163;BME280;23977;53.078;18.248;2023-05-29T10:18:58;101638.66;;;33.70;20.52
38163;BME280;23977;53.078;18.248;2023-05-29T11:14:14;101607.75;;;28.86;25.38
38163;BME280;23977;53.078;18.248;2023-05-29T11:16:41;101610.69;;;28.19;26.56
38163;BME280;23977;53.078;18.248;2023-05-29T11:19:07;101610.53;;;27.82;27.21
38163;BME280;23977;53.078;18.248;2023-05-29T11:24:20;101617.56;;;28.49;26.37
38163;BME280;23977;53.078;18.248;2023-05-29T11:26:47;101609.19;;;27.62;26.70
38163;BME280;23977;53.078;18.248;2023-05-29T11:29:14;101611.25;;;27.16;27.69
38163;BME280;23977;53.078;18.248;2023-05-29T11:31:42;101608.44;;;27.11;27.92
38163;BME280;23977;53.078;18.248;2023-05-29T11:34:09;101606.00;;;27.71;27.61
38163;BME280;23977;53.078;18.248;2023-05-29T11:36:36;101607.66;;;28.43;26.89
38163;BME280;23977;53.078;18.248;2023-05-29T11:39:02;101601.78;;;28.94;25.19
38163;BME280;23977;53.078;18.248;2023-05-29T11:41:29;101605.47;;;28.72;25.94
38163;BME280;23977;53.078;18.248;2023-05-29T11:46:24;101598.41;;;27.95;26.13
38163;BME280;23977;53.078;18.248;2023-05-29T11:48:51;101600.97;;;27.84;26.16
38163;BME280;23977;53.078;18.248;2023-05-29T11:51:17;101594.53;;;27.29;27.41
38163;BME280;23977;53.078;18.248;2023-05-29T11:53:43;101598.78;;;26.69;28.32
38163;BME280;23977;53.078;18.248;2023-05-29T11:56:09;101602.09;;;26.26;28.92
38163;BME280;23977;53.078;18.248;2023-05-29T11:58:39;101597.91;;;26.06;29.64
38163;BME280;23977;53.078;18.248;2023-05-29T12:01:05;101598.69;;;25.90;28.97
38163;BME280;23977;53.078;18.248;2023-05-29T12:03:37;101600.88;;;26.04;29.56
38163;BME280;23977;53.078;18.248;2023-05-29T12:06:03;101610.81;;;25.70;28.75
38163;BME280;23977;53.078;18.248;2023-05-29T12:08:28;101591.31;;;26.02;28.20
38163;BME280;23977;53.078;18.248;2023-05-29T12:10:54;101604.94;;;26.02;27.64
38163;BME280;23977;53.078;18.248;2023-05-29T12:13:19;101591.97;;;26.09;27.65
38163;BME280;23977;53.078;18.248;2023-05-29T12:15:45;101590.25;;;25.91;27.92
38163;BME280;23977;53.078;18.248;2023-05-29T12:18:13;101585.31;;;25.76;28.20
38163;BME280;23977;53.078;18.248;2023-05-29T12:20:39;101592.16;;;26.19;27.87
38163;BME280;23977;53.078;18.248;2023-05-29T12:23:17;101581.66;;;26.11;27.46
38163;BME280;23977;53.078;18.248;2023-05-29T12:25:46;101589.59;;;26.58;27.28
38163;BME280;23977;53.078;18.248;2023-05-29T12:28:17;101577.47;;;26.37;26.39
38163;BME280;23977;53.078;18.248;2023-05-29T12:30:48;101580.31;;;26.43;26.63
38163;BME280;23977;53.078;18.248;2023-05-29T12:33:30;101574.53;;;26.73;26.61
38163;BME280;23977;53.078;18.248;2023-05-29T12:36:01;101574.03;;;27.10;25.69
38163;BME280;23977;53.078;18.248;2023-05-29T12:38:26;101566.28;;;26.68;26.15
38163;BME280;23977;53.078;18.248;2023-05-29T12:40:52;101577.19;;;26.68;26.83
38163;BME280;23977;53.078;18.248;2023-05-29T12:43:19;101565.25;;;26.40;27.16
38163;BME280;23977;53.078;18.248;2023-05-29T12:45:59;101577.72;;;26.36;26.92
38163;BME280;23977;53.078;18.248;2023-05-29T12:48:27;101586.44;;;26.04;26.98
38163;BME280;23977;53.078;18.248;2023-05-29T12:50:53;101583.09;;;25.73;27.09
38163;BME280;23977;53.078;18.248;2023-05-29T12:53:18;101585.19;;;25.71;27.21
38163;BME280;23977;53.078;18.248;2023-05-29T12:56:02;101578.31;;;25.80;27.76
38163;BME280;23977;53.078;18.248;2023-05-29T12:58:37;101574.91;;;25.73;27.10
38163;BME280;23977;53.078;18.248;2023-05-29T13:01:03;101579.00;;;25.47;27.57
38163;BME280;23977;53.078;18.248;2023-05-29T13:03:28;101569.88;;;25.41;27.52
38163;BME280;23977;53.078;18.248;2023-05-29T13:05:54;101578.44;;;25.33;27.91
38163;BME280;23977;53.078;18.248;2023-05-29T13:08:20;101564.41;;;25.41;28.16
38163;BME280;23977;53.078;18.248;2023-05-29T13:10:46;101577.81;;;25.55;28.28
38163;BME280;23977;53.078;18.248;2023-05-29T13:13:12;101567.22;;;25.70;27.44
38163;BME280;23977;53.078;18.248;2023-05-29T13:15:37;101570.66;;;25.65;28.45
38163;BME280;23977;53.078;18.248;2023-05-29T13:18:05;101562.16;;;25.50;27.52
38163;BME280;23977;53.078;18.248;2023-05-29T13:20:31;101559.81;;;25.18;28.08
38163;BME280;23977;53.078;18.248;2023-05-29T13:22:57;101564.88;;;25.15;28.29
38163;BME280;23977;53.078;18.248;2023-05-29T13:25:23;101567.03;;;25.01;28.56
38163;BME280;23977;53.078;18.248;2023-05-29T13:27:49;101557.56;;;24.80;28.19
38163;BME280;23977;53.078;18.248;2023-05-29T13:30:15;101549.66;;;24.90;27.87
38163;BME280;23977;53.078;18.248;2023-05-29T13:32:41;101549.53;;;25.08;28.04
38163;BME280;23977;53.078;18.248;2023-05-29T13:35:07;101554.59;;;25.17;27.72
38163;BME280;23977;53.078;18.248;2023-05-29T13:37:33;101550.69;;;25.12;28.14
38163;BME280;23977;53.078;18.248;2023-05-29T13:39:59;101554.25;;;24.89;27.90
38163;BME280;23977;53.078;18.248;2023-05-29T13:42:25;101557.34;;;25.17;27.96
38163;BME280;23977;53.078;18.248;2023-05-29T13:44:50;101561.47;;;25.31;28.07
38163;BME280;23977;53.078;18.248;2023-05-29T13:47:16;101544.69;;;25.63;27.57
38163;BME280;23977;53.078;18.248;2023-05-29T13:49:42;101547.94;;;25.89;27.06
38163;BME280;23977;53.078;18.248;2023-05-29T13:52:08;101487.44;;;25.63;27.51